createdAt,value
2023-04-10T00:00:33.939Z,24.77
2023-04-10T00:01:33.987Z,24.77
2023-04-10T00:02:34.127Z,24.75
2023-04-10T00:03:34.282Z,24.75
2023-04-10T00:04:34.201Z,24.77
2023-04-10T00:05:34.161Z,24.75
2023-04-10T00:06:34.223Z,24.77
2023-04-10T00:07:34.264Z,24.77
2023-04-10T00:08:34.283Z,24.75
2023-04-10T00:09:34.298Z,24.75
2023-04-10T00:10:34.344Z,24.74
2023-04-10T00:11:34.384Z,24.75
2023-04-10T00:12:34.418Z,24.75
2023-04-10T00:13:34.502Z,24.77
2023-04-10T00:14:34.501Z,24.77
2023-04-10T00:15:34.565Z,24.75
2023-04-10T00:16:34.600Z,24.75
2023-04-10T00:17:34.637Z,24.74
2023-04-10T00:18:34.663Z,24.75
2023-04-10T00:19:34.739Z,24.75
2023-04-10T00:20:34.757Z,24.75
2023-04-10T00:21:34.786Z,24.75
2023-04-10T00:22:34.840Z,24.75
2023-04-10T00:23:34.904Z,24.77
2023-04-10T00:24:34.917Z,24.74
2023-04-10T00:25:34.959Z,24.75
2023-04-10T00:26:34.993Z,24.77
2023-04-10T00:27:35.132Z,24.77
2023-04-10T00:28:35.083Z,24.77
2023-04-10T00:29:35.127Z,24.75
2023-04-10T00:30:35.154Z,24.75
2023-04-10T00:31:35.241Z,24.74
2023-04-10T00:32:35.245Z,24.75
2023-04-10T00:33:35.298Z,24.75
2023-04-10T00:34:35.346Z,24.77
2023-04-10T00:35:35.379Z,24.74
2023-04-10T00:36:35.399Z,24.78
2023-04-10T00:37:35.442Z,24.77
2023-04-10T00:38:35.489Z,24.77
2023-04-10T00:39:35.512Z,24.77
2023-04-10T00:40:35.590Z,24.77
2023-04-10T00:41:35.613Z,24.75
2023-04-10T00:42:35.636Z,24.75
2023-04-10T00:43:35.690Z,24.74
2023-04-10T00:44:35.725Z,24.75
2023-04-10T00:45:35.773Z,24.74
2023-04-10T00:46:35.955Z,24.75
2023-04-10T00:47:35.851Z,24.74
2023-04-10T00:48:35.896Z,24.77
2023-04-10T00:49:35.915Z,24.74
2023-04-10T00:50:35.965Z,24.75
2023-04-10T00:51:36.017Z,24.75
2023-04-10T00:52:36.030Z,24.77
2023-04-10T00:53:36.073Z,24.75
2023-04-10T00:54:36.097Z,24.77
2023-04-10T00:55:36.149Z,24.77
2023-04-10T00:56:36.191Z,24.77
2023-04-10T00:57:36.220Z,24.75
2023-04-10T00:58:36.258Z,24.74
2023-04-10T00:59:36.303Z,24.74
2023-04-10T01:00:36.348Z,24.72
2023-04-10T01:01:36.504Z,24.74
2023-04-10T01:02:36.621Z,24.74
2023-04-10T01:03:36.561Z,24.72
2023-04-10T01:04:36.723Z,24.77
2023-04-10T01:05:36.557Z,24.74
2023-04-10T01:06:36.594Z,24.75
2023-04-10T01:07:36.643Z,24.72
2023-04-10T01:08:36.714Z,24.74
2023-04-10T01:09:36.725Z,24.75
2023-04-10T01:10:36.777Z,24.75
2023-04-10T01:11:36.812Z,24.72
2023-04-10T01:12:36.847Z,24.75
2023-04-10T01:13:36.884Z,24.75
2023-04-10T01:14:36.912Z,24.75
2023-04-10T01:15:36.947Z,24.72
2023-04-10T01:16:37.030Z,24.77
2023-04-10T01:17:37.070Z,24.71
2023-04-10T01:18:37.100Z,24.74
2023-04-10T01:19:37.129Z,24.75
2023-04-10T01:20:37.162Z,24.74
2023-04-10T01:21:37.185Z,24.75
2023-04-10T01:22:37.227Z,24.77
2023-04-10T01:23:37.267Z,24.72
2023-04-10T01:24:37.335Z,24.75
2023-04-10T01:25:37.360Z,24.75
2023-04-10T01:26:37.396Z,24.75
2023-04-10T01:27:37.440Z,24.74
2023-04-10T01:28:37.470Z,24.75
2023-04-10T01:29:37.516Z,24.75
2023-04-10T01:30:37.542Z,24.75
2023-04-10T01:31:37.523Z,24.77
2023-04-10T01:32:37.533Z,24.77
2023-04-10T01:33:37.544Z,24.74
2023-04-10T01:34:37.464Z,24.77
2023-04-10T01:35:37.458Z,24.75
2023-04-10T01:36:37.419Z,24.72
2023-04-10T01:37:37.397Z,24.77
2023-04-10T01:38:37.404Z,24.75
2023-04-10T01:39:37.391Z,24.72
2023-04-10T01:40:37.384Z,24.77
2023-04-10T01:41:37.368Z,24.75
2023-04-10T01:42:37.392Z,24.75
2023-04-10T01:43:37.437Z,24.78
2023-04-10T01:44:37.486Z,24.75
2023-04-10T01:45:37.503Z,24.75
2023-04-10T01:46:37.624Z,24.74
2023-04-10T01:47:38.474Z,24.77
2023-04-10T01:48:37.657Z,24.75
2023-04-10T01:49:37.717Z,24.75
2023-04-10T01:50:37.713Z,24.74
2023-04-10T01:51:37.767Z,24.74
2023-04-10T01:52:37.844Z,24.75
2023-04-10T01:53:37.848Z,24.74
2023-04-10T01:54:37.880Z,24.77
2023-04-10T01:55:37.930Z,24.74
2023-04-10T01:56:37.962Z,24.72
2023-04-10T01:57:38.002Z,24.75
2023-04-10T01:58:38.032Z,24.74
2023-04-10T01:59:38.067Z,24.77
2023-04-10T02:00:38.129Z,24.74
2023-04-10T02:01:38.217Z,24.74
2023-04-10T02:02:38.415Z,24.74
2023-04-10T02:03:38.562Z,24.75
2023-04-10T02:04:38.337Z,24.75
2023-04-10T02:05:38.282Z,24.72
2023-04-10T02:06:38.328Z,24.72
2023-04-10T02:07:38.360Z,24.72
2023-04-10T02:08:38.430Z,24.72
2023-04-10T02:09:38.508Z,24.75
2023-04-10T02:10:38.527Z,24.75
2023-04-10T02:11:38.545Z,24.72
2023-04-10T02:12:38.491Z,24.74
2023-04-10T02:13:38.473Z,24.74
2023-04-10T02:14:38.483Z,24.75
2023-04-10T02:15:38.530Z,24.74
2023-04-10T02:16:38.487Z,24.74
2023-04-10T02:17:38.467Z,24.75
2023-04-10T02:18:38.461Z,24.74
2023-04-10T02:19:38.458Z,24.75
2023-04-10T02:20:38.467Z,24.74
2023-04-10T02:21:38.435Z,24.72
2023-04-10T02:22:38.433Z,24.72
2023-04-10T02:23:38.451Z,24.72
2023-04-10T02:24:38.509Z,24.72
2023-04-10T02:25:38.535Z,24.72
2023-04-10T02:26:38.603Z,24.72
2023-04-10T02:27:38.635Z,24.74
2023-04-10T02:28:38.653Z,24.72
2023-04-10T02:29:38.713Z,24.71
2023-04-10T02:30:38.729Z,24.72
2023-04-10T02:31:38.827Z,24.72
2023-04-10T02:32:38.841Z,24.75
2023-04-10T02:33:38.869Z,24.74
2023-04-10T02:34:38.905Z,24.74
2023-04-10T02:35:38.963Z,24.71
2023-04-10T02:36:39.011Z,24.74
2023-04-10T02:37:39.020Z,24.71
2023-04-10T02:38:39.047Z,24.74
2023-04-10T02:39:39.102Z,24.71
2023-04-10T02:40:39.143Z,24.71
2023-04-10T02:41:39.187Z,24.72
2023-04-10T02:42:39.212Z,24.71
2023-04-10T02:43:39.263Z,24.68
2023-04-10T02:44:39.304Z,24.71
2023-04-10T02:45:39.369Z,24.72
2023-04-10T02:46:39.458Z,24.72
2023-04-10T02:47:39.501Z,24.71
2023-04-10T02:48:39.481Z,24.70
2023-04-10T02:49:39.544Z,24.72
2023-04-10T02:50:39.568Z,24.70
2023-04-10T02:51:39.613Z,24.71
2023-04-10T02:52:39.663Z,24.71
2023-04-10T02:53:39.686Z,24.71
2023-04-10T02:54:39.739Z,24.72
2023-04-10T02:55:39.773Z,24.71
2023-04-10T02:56:39.837Z,24.70
2023-04-10T02:57:40.006Z,24.72
2023-04-10T02:58:39.915Z,24.70
2023-04-10T02:59:39.955Z,24.71
2023-04-10T03:00:40.012Z,24.72
2023-04-10T03:01:40.104Z,24.71
2023-04-10T03:02:40.272Z,24.72
2023-04-10T03:03:40.214Z,24.71
2023-04-10T03:04:40.184Z,24.68
2023-04-10T03:05:40.199Z,24.70
2023-04-10T03:06:40.270Z,24.71
2023-04-10T03:07:40.292Z,24.70
2023-04-10T03:08:40.327Z,24.70
2023-04-10T03:09:40.385Z,24.71
2023-04-10T03:10:40.454Z,24.71
2023-04-10T03:11:40.489Z,24.68
2023-04-10T03:12:40.540Z,24.68
2023-04-10T03:13:40.569Z,24.70
2023-04-10T03:14:40.642Z,24.68
2023-04-10T03:15:40.675Z,24.70
2023-04-10T03:16:41.001Z,24.68
2023-04-10T03:17:40.947Z,24.70
2023-04-10T03:18:40.792Z,24.70
2023-04-10T03:19:40.847Z,24.70
2023-04-10T03:20:41.634Z,24.68
2023-04-10T03:21:40.972Z,24.68
2023-04-10T03:22:40.985Z,24.71
2023-04-10T03:23:41.012Z,24.70
2023-04-10T03:24:41.093Z,24.70
2023-04-10T03:25:41.104Z,24.71
2023-04-10T03:26:41.152Z,24.70
2023-04-10T03:27:41.219Z,24.68
2023-04-10T03:28:41.221Z,24.68
2023-04-10T03:29:41.297Z,24.70
2023-04-10T03:30:41.339Z,24.70
2023-04-10T03:31:41.409Z,24.68
2023-04-10T03:32:41.402Z,24.68
2023-04-10T03:33:41.493Z,24.68
2023-04-10T03:34:41.519Z,24.67
2023-04-10T03:35:41.580Z,24.68
2023-04-10T03:36:41.591Z,24.67
2023-04-10T03:37:41.625Z,24.67
2023-04-10T03:38:41.668Z,24.67
2023-04-10T03:39:41.718Z,24.68
2023-04-10T03:40:41.766Z,24.67
2023-04-10T03:41:41.786Z,24.68
2023-04-10T03:42:41.863Z,24.71
2023-04-10T03:43:41.889Z,24.70
2023-04-10T03:44:41.929Z,24.68
2023-04-10T03:45:41.967Z,24.67
2023-04-10T03:46:42.026Z,24.67
2023-04-10T03:47:42.111Z,24.67
2023-04-10T03:48:42.105Z,24.68
2023-04-10T03:49:42.177Z,24.70
2023-04-10T03:50:42.202Z,24.71
2023-04-10T03:51:42.243Z,24.68
2023-04-10T03:52:42.282Z,24.67
2023-04-10T03:53:42.336Z,24.68
2023-04-10T03:54:42.367Z,24.68
2023-04-10T03:55:42.418Z,24.67
2023-04-10T03:56:42.454Z,24.70
2023-04-10T03:57:42.505Z,24.68
2023-04-10T03:58:42.551Z,24.70
2023-04-10T03:59:42.602Z,24.68
2023-04-10T04:00:42.691Z,24.68
2023-04-10T04:01:42.724Z,24.67
2023-04-10T04:02:42.825Z,24.68
2023-04-10T04:03:42.924Z,24.68
2023-04-10T04:04:42.935Z,24.70
2023-04-10T04:05:42.871Z,24.70
2023-04-10T04:06:42.912Z,24.68
2023-04-10T04:07:42.940Z,24.70
2023-04-10T04:08:42.984Z,24.68
2023-04-10T04:09:43.039Z,24.65
2023-04-10T04:10:43.110Z,24.68
2023-04-10T04:11:43.141Z,24.68
2023-04-10T04:12:43.188Z,24.68
2023-04-10T04:13:43.215Z,24.68
2023-04-10T04:14:43.264Z,24.70
2023-04-10T04:15:43.304Z,24.68
2023-04-10T04:16:43.418Z,24.68
2023-04-10T04:17:43.438Z,24.65
2023-04-10T04:18:43.463Z,24.68
2023-04-10T04:19:43.487Z,24.67
2023-04-10T04:20:43.553Z,24.67
2023-04-10T04:21:43.588Z,24.67
2023-04-10T04:22:43.633Z,24.68
2023-04-10T04:23:43.705Z,24.64
2023-04-10T04:24:43.735Z,24.68
2023-04-10T04:25:43.761Z,24.68
2023-04-10T04:26:43.804Z,24.68
2023-04-10T04:27:43.891Z,24.68
2023-04-10T04:28:43.908Z,24.68
2023-04-10T04:29:43.947Z,24.67
2023-04-10T04:30:43.992Z,24.68
2023-04-10T04:31:44.059Z,24.68
2023-04-10T04:32:44.117Z,24.68
2023-04-10T04:33:44.145Z,24.68
2023-04-10T04:34:44.164Z,24.70
2023-04-10T04:35:44.234Z,24.70
2023-04-10T04:36:44.261Z,24.67
2023-04-10T04:37:44.284Z,24.70
2023-04-10T04:38:44.342Z,24.67
2023-04-10T04:39:44.371Z,24.68
2023-04-10T04:40:44.429Z,24.67
2023-04-10T04:41:44.464Z,24.67
2023-04-10T04:42:44.518Z,24.68
2023-04-10T04:43:44.552Z,24.68
2023-04-10T04:44:44.618Z,24.70
2023-04-10T04:45:44.693Z,24.68
2023-04-10T04:46:44.825Z,24.68
2023-04-10T04:47:44.739Z,24.70
2023-04-10T04:48:44.793Z,24.65
2023-04-10T04:49:44.837Z,24.67
2023-04-10T04:50:44.877Z,24.67
2023-04-10T04:51:44.909Z,24.68
2023-04-10T04:52:44.959Z,24.68
2023-04-10T04:53:45.044Z,24.64
2023-04-10T04:54:45.061Z,24.67
2023-04-10T04:55:45.085Z,24.67
2023-04-10T04:56:45.152Z,24.68
2023-04-10T04:57:45.168Z,24.67
2023-04-10T04:58:45.228Z,24.68
2023-04-10T04:59:45.261Z,24.67
2023-04-10T05:00:45.331Z,24.67
2023-04-10T05:01:45.446Z,24.67
2023-04-10T05:02:45.503Z,24.68
2023-04-10T05:03:45.692Z,24.67
2023-04-10T05:04:45.507Z,24.65
2023-04-10T05:05:45.567Z,24.67
2023-04-10T05:06:45.539Z,24.68
2023-04-10T05:07:45.544Z,24.67
2023-04-10T05:08:45.551Z,24.67
2023-04-10T05:09:45.547Z,24.64
2023-04-10T05:10:45.520Z,24.64
2023-04-10T05:11:45.532Z,24.67
2023-04-10T05:12:45.513Z,24.67
2023-04-10T05:13:45.565Z,24.65
2023-04-10T05:14:45.515Z,24.67
2023-04-10T05:15:45.510Z,24.65
2023-04-10T05:16:45.512Z,24.65
2023-04-10T05:17:45.555Z,24.67
2023-04-10T05:18:45.554Z,24.67
2023-04-10T05:19:45.569Z,24.65
2023-04-10T05:20:45.624Z,24.67
2023-04-10T05:21:45.659Z,24.70
2023-04-10T05:22:45.702Z,24.67
2023-04-10T05:23:45.759Z,24.68
2023-04-10T05:24:45.814Z,24.65
2023-04-10T05:25:45.866Z,24.67
2023-04-10T05:26:45.913Z,24.67
2023-04-10T05:27:45.943Z,24.67
2023-04-10T05:28:45.991Z,24.68
2023-04-10T05:29:46.040Z,24.68
2023-04-10T05:30:46.116Z,24.68
2023-04-10T05:31:46.119Z,24.70
2023-04-10T05:32:46.253Z,24.68
2023-04-10T05:33:46.225Z,24.70
2023-04-10T05:34:46.282Z,24.67
2023-04-10T05:35:46.340Z,24.70
2023-04-10T05:36:46.370Z,24.68
2023-04-10T05:37:46.409Z,24.68
2023-04-10T05:38:46.444Z,24.67
2023-04-10T05:39:46.476Z,24.70
2023-04-10T05:40:46.541Z,24.68
2023-04-10T05:41:46.600Z,24.68
2023-04-10T05:42:46.609Z,24.67
2023-04-10T05:43:46.657Z,24.67
2023-04-10T05:44:46.730Z,24.68
2023-04-10T05:45:46.781Z,24.67
2023-04-10T05:46:46.908Z,24.68
2023-04-10T05:47:46.990Z,24.67
2023-04-10T05:48:46.966Z,24.68
2023-04-10T05:49:47.005Z,24.68
2023-04-10T05:50:48.510Z,24.67
2023-04-10T05:51:47.552Z,24.68
2023-04-10T05:52:47.069Z,24.67
2023-04-10T05:53:48.008Z,24.68
2023-04-10T05:54:47.099Z,24.67
2023-04-10T05:55:48.019Z,24.67
2023-04-10T05:56:47.176Z,24.68
2023-04-10T05:57:47.412Z,24.70
2023-04-10T05:58:47.371Z,24.68
2023-04-10T05:59:47.311Z,24.68
2023-04-10T06:00:47.415Z,24.70
2023-04-10T06:01:47.504Z,24.67
2023-04-10T06:02:48.085Z,24.68
2023-04-10T06:03:47.675Z,24.70
2023-04-10T06:04:47.571Z,24.70
2023-04-10T06:05:47.515Z,24.68
2023-04-10T06:06:47.563Z,24.68
2023-04-10T06:07:47.600Z,24.70
2023-04-10T06:08:47.628Z,24.71
2023-04-10T06:09:47.688Z,24.71
2023-04-10T06:10:47.704Z,24.68
2023-04-10T06:11:47.832Z,24.71
2023-04-10T06:12:47.815Z,24.68
2023-04-10T06:13:47.844Z,24.68
2023-04-10T06:14:47.884Z,24.70
2023-04-10T06:15:47.958Z,24.71
2023-04-10T06:16:47.978Z,24.70
2023-04-10T06:17:48.099Z,24.71
2023-04-10T06:18:48.056Z,24.70
2023-04-10T06:19:49.049Z,24.71
2023-04-10T06:20:48.166Z,24.70
2023-04-10T06:21:48.164Z,24.70
2023-04-10T06:22:48.233Z,24.71
2023-04-10T06:23:48.256Z,24.72
2023-04-10T06:24:48.325Z,24.72
2023-04-10T06:25:48.338Z,24.71
2023-04-10T06:26:48.423Z,24.71
2023-04-10T06:27:48.445Z,24.71
2023-04-10T06:28:48.505Z,24.71
2023-04-10T06:29:48.524Z,24.71
2023-04-10T06:30:48.554Z,24.71
2023-04-10T06:31:48.655Z,24.71
2023-04-10T06:32:48.649Z,24.71
2023-04-10T06:33:48.694Z,24.71
2023-04-10T06:34:48.724Z,24.72
2023-04-10T06:35:48.821Z,24.72
2023-04-10T06:36:48.800Z,24.72
2023-04-10T06:37:48.834Z,24.71
2023-04-10T06:38:48.934Z,24.74
2023-04-10T06:39:48.922Z,24.74
2023-04-10T06:40:48.948Z,24.72
2023-04-10T06:41:49.047Z,24.74
2023-04-10T06:42:49.138Z,24.72
2023-04-10T06:43:49.084Z,24.72
2023-04-10T06:44:49.123Z,24.72
2023-04-10T06:45:49.190Z,24.72
2023-04-10T06:46:49.260Z,24.74
2023-04-10T06:47:49.271Z,24.72
2023-04-10T06:48:49.315Z,24.72
2023-04-10T06:49:49.310Z,24.75
2023-04-10T06:50:49.370Z,24.75
2023-04-10T06:51:49.558Z,24.72
2023-04-10T06:52:49.443Z,24.75
2023-04-10T06:53:49.496Z,24.77
2023-04-10T06:54:49.504Z,24.81
2023-04-10T06:55:49.520Z,24.82
2023-04-10T06:56:49.540Z,24.85
2023-04-10T06:57:49.568Z,24.84
2023-04-10T06:58:49.631Z,24.88
2023-04-10T06:59:49.652Z,24.88
2023-04-10T07:00:49.812Z,24.86
2023-04-10T07:01:49.754Z,24.89
2023-04-10T07:02:49.871Z,24.92
2023-04-10T07:03:49.801Z,24.92
2023-04-10T07:04:50.099Z,24.96
2023-04-10T07:05:49.872Z,24.95
2023-04-10T07:06:49.897Z,24.95
2023-04-10T07:07:49.903Z,24.99
2023-04-10T07:08:49.971Z,24.99
2023-04-10T07:09:50.026Z,25.01
2023-04-10T07:10:50.007Z,25.02
2023-04-10T07:11:50.032Z,25.03
2023-04-10T07:12:50.055Z,25.03
2023-04-10T07:13:50.112Z,25.03
2023-04-10T07:14:50.135Z,25.06
2023-04-10T07:15:50.157Z,25.06
2023-04-10T07:16:50.213Z,25.06
2023-04-10T07:17:50.250Z,25.06
2023-04-10T07:18:50.272Z,25.10
2023-04-10T07:19:50.284Z,25.09
2023-04-10T07:20:50.291Z,25.10
2023-04-10T07:21:50.303Z,25.12
2023-04-10T07:22:50.308Z,25.12
2023-04-10T07:23:50.400Z,25.13
2023-04-10T07:24:50.366Z,25.15
2023-04-10T07:25:50.393Z,25.16
2023-04-10T07:26:50.414Z,25.15
2023-04-10T07:27:50.420Z,25.16
2023-04-10T07:28:50.454Z,25.18
2023-04-10T07:29:50.468Z,25.18
2023-04-10T07:30:50.484Z,25.19
2023-04-10T07:31:50.630Z,25.22
2023-04-10T07:32:50.606Z,25.20
2023-04-10T07:33:50.581Z,25.23
2023-04-10T07:34:50.555Z,25.23
2023-04-10T07:35:50.605Z,25.23
2023-04-10T07:36:50.600Z,25.23
2023-04-10T07:37:50.564Z,25.26
2023-04-10T07:38:50.601Z,25.25
2023-04-10T07:39:50.596Z,25.30
2023-04-10T07:40:50.638Z,25.25
2023-04-10T07:41:50.608Z,25.29
2023-04-10T07:42:52.053Z,25.29
2023-04-10T07:43:50.641Z,25.30
2023-04-10T07:44:50.591Z,25.30
2023-04-10T07:45:50.574Z,25.32
2023-04-10T07:46:50.533Z,25.32
2023-04-10T07:47:50.577Z,25.33
2023-04-10T07:48:50.506Z,25.33
2023-04-10T07:49:51.090Z,25.39
2023-04-10T07:50:50.654Z,25.37
2023-04-10T07:51:50.593Z,25.37
2023-04-10T07:52:50.437Z,25.36
2023-04-10T07:53:50.425Z,25.39
2023-04-10T07:54:50.386Z,25.40
2023-04-10T07:55:50.404Z,25.39
2023-04-10T07:56:50.352Z,25.40
2023-04-10T07:57:50.372Z,25.41
2023-04-10T07:58:50.317Z,25.43
2023-04-10T07:59:50.310Z,25.43
2023-04-10T08:00:50.280Z,25.43
2023-04-10T08:01:50.427Z,25.46
2023-04-10T08:02:50.352Z,25.46
2023-04-10T08:03:50.358Z,25.48
2023-04-10T08:04:50.287Z,25.48
2023-04-10T08:05:50.213Z,25.48
2023-04-10T08:06:50.184Z,25.48
2023-04-10T08:07:50.156Z,25.48
2023-04-10T08:08:50.136Z,25.50
2023-04-10T08:09:50.135Z,25.50
2023-04-10T08:10:50.104Z,25.54
2023-04-10T08:11:50.108Z,25.53
2023-04-10T08:12:50.086Z,25.53
2023-04-10T08:13:50.063Z,25.51
2023-04-10T08:14:50.032Z,25.53
2023-04-10T08:15:50.042Z,25.53
2023-04-10T08:16:50.065Z,25.57
2023-04-10T08:17:50.022Z,25.57
2023-04-10T08:18:49.963Z,25.57
2023-04-10T08:19:49.918Z,25.60
2023-04-10T08:20:49.928Z,25.60
2023-04-10T08:21:49.900Z,25.61
2023-04-10T08:22:50.027Z,25.61
2023-04-10T08:23:49.865Z,25.64
2023-04-10T08:24:49.885Z,25.65
2023-04-10T08:25:49.827Z,25.64
2023-04-10T08:26:49.834Z,25.64
2023-04-10T08:27:49.806Z,25.67
2023-04-10T08:28:49.777Z,25.67
2023-04-10T08:29:49.799Z,25.68
2023-04-10T08:30:49.776Z,25.67
2023-04-10T08:31:49.726Z,25.68
2023-04-10T08:32:49.803Z,25.71
2023-04-10T08:33:49.716Z,25.68
2023-04-10T08:34:49.737Z,25.70
2023-04-10T08:35:49.722Z,25.71
2023-04-10T08:36:49.666Z,25.71
2023-04-10T08:38:02.176Z,25.70
2023-04-10T08:38:50.638Z,25.74
2023-04-10T08:39:49.609Z,25.74
2023-04-10T08:40:49.611Z,25.74
2023-04-10T08:41:49.577Z,25.74
2023-04-10T08:42:49.580Z,25.77
2023-04-10T08:43:49.542Z,25.75
2023-04-10T08:44:49.559Z,25.78
2023-04-10T08:45:49.557Z,25.78
2023-04-10T08:46:49.518Z,25.78
2023-04-10T08:47:49.497Z,25.81
2023-04-10T08:48:49.484Z,25.80
2023-04-10T08:49:49.446Z,25.81
2023-04-10T08:50:49.417Z,25.81
2023-04-10T08:51:49.421Z,25.84
2023-04-10T08:52:49.389Z,25.84
2023-04-10T08:53:49.384Z,25.85
2023-04-10T08:54:49.432Z,25.85
2023-04-10T08:55:49.353Z,25.84
2023-04-10T08:56:49.357Z,25.89
2023-04-10T08:57:58.057Z,25.87
2023-04-10T08:58:50.356Z,25.88
2023-04-10T08:59:49.331Z,25.91
2023-04-10T09:00:49.294Z,25.89
2023-04-10T09:01:49.410Z,25.88
2023-04-10T09:02:49.334Z,25.92
2023-04-10T09:03:49.372Z,25.94
2023-04-10T09:04:49.254Z,25.92
2023-04-10T09:05:49.239Z,25.98
2023-04-10T09:06:49.240Z,25.98
2023-04-10T09:07:49.279Z,25.99
2023-04-10T09:08:49.317Z,25.98
2023-04-10T09:09:49.346Z,25.99
2023-04-10T09:10:49.386Z,26.01
2023-04-10T09:11:49.508Z,26.03
2023-04-10T09:12:49.487Z,26.05
2023-04-10T09:13:49.494Z,26.06
2023-04-10T09:14:49.511Z,26.08
2023-04-10T09:15:49.625Z,26.08
2023-04-10T09:16:49.600Z,26.09
2023-04-10T09:17:49.663Z,26.08
2023-04-10T09:18:49.670Z,26.09
2023-04-10T09:19:49.702Z,26.12
2023-04-10T09:20:49.728Z,26.11
2023-04-10T09:21:49.843Z,26.15
2023-04-10T09:22:49.805Z,26.15
2023-04-10T09:23:49.812Z,26.15
2023-04-10T09:24:49.864Z,26.18
2023-04-10T09:25:51.258Z,26.16
2023-04-10T09:26:50.004Z,26.19
2023-04-10T09:27:49.957Z,26.18
2023-04-10T09:28:49.986Z,26.18
2023-04-10T09:29:50.069Z,26.20
2023-04-10T09:30:50.112Z,26.20
2023-04-10T09:31:50.266Z,26.19
2023-04-10T09:32:50.164Z,26.22
2023-04-10T09:33:50.145Z,26.25
2023-04-10T09:34:50.195Z,26.25
2023-04-10T09:35:50.207Z,26.26
2023-04-10T09:36:50.215Z,26.26
2023-04-10T09:37:50.251Z,26.28
2023-04-10T09:38:50.283Z,26.29
2023-04-10T09:39:50.345Z,26.30
2023-04-10T09:40:50.801Z,26.30
2023-04-10T09:41:50.381Z,26.33
2023-04-10T09:42:50.388Z,26.32
2023-04-10T09:43:50.425Z,26.32
2023-04-10T09:44:50.432Z,26.33
2023-04-10T09:45:50.453Z,26.36
2023-04-10T09:46:50.525Z,26.36
2023-04-10T09:47:50.520Z,26.38
2023-04-10T09:48:50.535Z,26.36
2023-04-10T09:49:50.534Z,26.40
2023-04-10T09:50:50.579Z,26.39
2023-04-10T09:51:50.630Z,26.39
2023-04-10T09:52:50.635Z,26.39
2023-04-10T09:53:50.664Z,26.39
2023-04-10T09:54:50.670Z,26.43
2023-04-10T09:55:50.728Z,26.43
2023-04-10T09:56:50.732Z,26.42
2023-04-10T09:57:50.742Z,26.43
2023-04-10T09:58:50.763Z,26.43
2023-04-10T09:59:50.799Z,26.44
2023-04-10T10:00:50.827Z,26.44
2023-04-10T10:01:50.942Z,26.46
2023-04-10T10:02:50.964Z,26.47
2023-04-10T10:03:50.938Z,26.47
2023-04-10T10:04:50.895Z,26.46
2023-04-10T10:05:50.889Z,26.49
2023-04-10T10:06:50.897Z,26.46
2023-04-10T10:07:50.910Z,26.47
2023-04-10T10:08:50.940Z,26.49
2023-04-10T10:09:50.944Z,26.49
2023-04-10T10:10:50.962Z,26.49
2023-04-10T10:11:50.976Z,26.49
2023-04-10T10:12:50.990Z,26.50
2023-04-10T10:13:51.025Z,26.53
2023-04-10T10:14:51.075Z,26.50
2023-04-10T10:15:51.197Z,26.50
2023-04-10T10:16:51.055Z,26.50
2023-04-10T10:17:51.129Z,26.51
2023-04-10T10:18:51.078Z,26.51
2023-04-10T10:19:51.066Z,26.53
2023-04-10T10:20:51.109Z,26.53
2023-04-10T10:21:51.113Z,26.56
2023-04-10T10:22:51.102Z,26.57
2023-04-10T10:23:51.128Z,26.58
2023-04-10T10:24:51.142Z,26.57
2023-04-10T10:25:51.154Z,26.56
2023-04-10T10:26:51.246Z,26.56
2023-04-10T10:27:51.176Z,26.57
2023-04-10T10:28:51.202Z,26.57
2023-04-10T10:29:51.201Z,26.56
2023-04-10T10:30:51.166Z,26.57
2023-04-10T10:31:51.211Z,26.60
2023-04-10T10:32:51.223Z,26.61
2023-04-10T10:33:51.206Z,26.63
2023-04-10T10:34:51.187Z,26.58
2023-04-10T10:35:51.239Z,26.60
2023-04-10T10:36:51.243Z,26.63
2023-04-10T10:37:51.200Z,26.61
2023-04-10T10:38:51.232Z,26.61
2023-04-10T10:39:51.238Z,26.64
2023-04-10T10:40:51.236Z,26.64
2023-04-10T10:41:51.271Z,26.61
2023-04-10T10:42:51.242Z,26.64
2023-04-10T10:43:51.256Z,26.63
2023-04-10T10:44:51.275Z,26.64
2023-04-10T10:45:51.295Z,26.63
2023-04-10T10:46:51.273Z,26.63
2023-04-10T10:47:51.378Z,26.63
2023-04-10T10:48:51.304Z,26.61
2023-04-10T10:49:51.224Z,26.63
2023-04-10T10:50:51.204Z,26.63
2023-04-10T10:51:51.181Z,26.63
2023-04-10T10:52:51.151Z,26.63
2023-04-10T10:53:51.137Z,26.63
2023-04-10T10:54:59.428Z,26.60
2023-04-10T10:55:52.059Z,26.64
2023-04-10T10:56:51.065Z,26.64
2023-04-10T10:57:51.005Z,26.66
2023-04-10T10:58:50.959Z,26.64
2023-04-10T10:59:50.950Z,26.67
2023-04-10T11:00:50.990Z,26.67
2023-04-10T11:01:51.013Z,26.64
2023-04-10T11:02:50.996Z,26.66
2023-04-10T11:03:50.935Z,26.67
2023-04-10T11:04:50.770Z,26.70
2023-04-10T11:05:50.737Z,26.68
2023-04-10T11:06:50.689Z,26.71
2023-04-10T11:07:50.706Z,26.71
2023-04-10T11:08:50.683Z,26.71
2023-04-10T11:09:50.710Z,26.70
2023-04-10T11:10:50.557Z,26.76
2023-04-10T11:11:50.519Z,26.74
2023-04-10T11:12:50.519Z,26.71
2023-04-10T11:13:50.532Z,26.76
2023-04-10T11:14:50.524Z,26.77
2023-04-10T11:15:50.508Z,26.78
2023-04-10T11:16:50.706Z,26.78
2023-04-10T11:17:50.532Z,26.77
2023-04-10T11:18:59.384Z,26.77
2023-04-10T11:19:51.459Z,26.77
2023-04-10T11:20:50.411Z,26.78
2023-04-10T11:21:50.372Z,26.77
2023-04-10T11:22:50.341Z,26.76
2023-04-10T11:23:50.332Z,26.80
2023-04-10T11:24:50.289Z,26.83
2023-04-10T11:25:50.270Z,26.81
2023-04-10T11:26:50.211Z,26.80
2023-04-10T11:27:50.194Z,26.84
2023-04-10T11:28:50.158Z,26.85
2023-04-10T11:29:50.146Z,26.88
2023-04-10T11:30:50.085Z,26.88
2023-04-10T11:31:50.080Z,26.88
2023-04-10T11:32:50.097Z,26.88
2023-04-10T11:33:50.005Z,26.91
2023-04-10T11:34:49.963Z,26.93
2023-04-10T11:35:49.945Z,26.94
2023-04-10T11:36:49.883Z,26.95
2023-04-10T11:37:49.855Z,26.98
2023-04-10T11:38:49.829Z,26.98
2023-04-10T11:39:49.802Z,26.95
2023-04-10T11:40:49.764Z,26.97
2023-04-10T11:41:49.740Z,26.99
2023-04-10T11:42:49.731Z,27.01
2023-04-10T11:43:49.736Z,26.99
2023-04-10T11:44:49.704Z,26.99
2023-04-10T11:45:49.699Z,27.02
2023-04-10T11:46:49.668Z,27.01
2023-04-10T11:47:49.670Z,27.04
2023-04-10T11:48:49.608Z,27.04
2023-04-10T11:49:49.575Z,27.04
2023-04-10T11:50:49.596Z,27.06
2023-04-10T11:51:49.576Z,27.09
2023-04-10T11:52:49.532Z,27.06
2023-04-10T11:53:49.514Z,27.08
2023-04-10T11:54:49.490Z,27.08
2023-04-10T11:55:49.480Z,27.12
2023-04-10T11:56:49.411Z,27.12
2023-04-10T11:57:49.408Z,27.12
2023-04-10T11:58:49.413Z,27.13
2023-04-10T11:59:49.349Z,27.12
2023-04-10T12:00:49.344Z,27.15
2023-04-10T12:01:49.316Z,27.15
2023-04-10T12:02:49.426Z,27.12
2023-04-10T12:03:49.378Z,27.15
2023-04-10T12:04:49.378Z,27.16
2023-04-10T12:05:49.256Z,27.18
2023-04-10T12:06:49.229Z,27.18
2023-04-10T12:07:49.187Z,27.16
2023-04-10T12:08:49.150Z,27.18
2023-04-10T12:09:49.187Z,27.16
2023-04-10T12:10:49.116Z,27.16
2023-04-10T12:11:49.090Z,27.16
2023-04-10T12:12:49.057Z,27.16
2023-04-10T12:13:49.019Z,27.18
2023-04-10T12:14:49.012Z,27.19
2023-04-10T12:15:49.011Z,27.19
2023-04-10T12:16:48.950Z,27.21
2023-04-10T12:17:48.961Z,27.19
2023-04-10T12:18:48.885Z,27.21
2023-04-10T12:19:48.850Z,27.22
2023-04-10T12:20:48.857Z,27.21
2023-04-10T12:21:48.801Z,27.22
2023-04-10T12:22:48.753Z,27.21
2023-04-10T12:23:48.722Z,27.22
2023-04-10T12:24:48.761Z,27.24
2023-04-10T12:25:48.666Z,27.24
2023-04-10T12:26:48.655Z,27.25
2023-04-10T12:27:48.638Z,27.24
2023-04-10T12:28:48.607Z,27.24
2023-04-10T12:29:48.570Z,27.22
2023-04-10T12:30:48.587Z,27.22
2023-04-10T12:31:48.540Z,27.26
2023-04-10T12:32:48.561Z,27.24
2023-04-10T12:33:48.479Z,27.25
2023-04-10T12:34:48.455Z,27.26
2023-04-10T12:35:48.477Z,27.26
2023-04-10T12:36:48.527Z,27.28
2023-04-10T12:37:48.481Z,27.28
2023-04-10T12:38:48.441Z,27.28
2023-04-10T12:39:48.416Z,27.29
2023-04-10T12:40:48.390Z,27.28
2023-04-10T12:41:48.365Z,27.29
2023-04-10T12:42:48.348Z,27.31
2023-04-10T12:43:48.294Z,27.28
2023-04-10T12:44:48.248Z,27.28
2023-04-10T12:45:48.217Z,27.29
2023-04-10T12:46:48.204Z,27.29
2023-04-10T12:47:48.202Z,27.31
2023-04-10T12:48:48.202Z,27.29
2023-04-10T12:49:48.160Z,27.29
2023-04-10T12:50:48.161Z,27.29
2023-04-10T12:51:48.130Z,27.28
2023-04-10T12:52:48.173Z,27.28